sensor_id;sensor_type;location;lat;lon;timestamp;P1;durP1;ratioP1;P2;durP2;ratioP2
7571;SDS011;3827;49.928;8.548;2023-01-30T00:01:13;19.70;;;17.92;;
7571;SDS011;3827;49.928;8.548;2023-01-30T00:03:42;20.13;;;18.33;;
7571;SDS011;3827;49.928;8.548;2023-01-30T00:06:10;20.20;;;18.40;;
7571;SDS011;3827;49.928;8.548;2023-01-30T00:08:37;20.00;;;18.20;;
7571;SDS011;3827;49.928;8.548;2023-01-30T00:11:04;19.27;;;17.52;;
7571;SDS011;3827;49.928;8.548;2023-01-30T00:13:33;18.42;;;16.83;;
7571;SDS011;3827;49.928;8.548;2023-01-30T00:16:00;19.13;;;17.40;;
7571;SDS011;3827;49.928;8.548;2023-01-30T00:18:27;19.35;;;17.65;;
7571;SDS011;3827;49.928;8.548;2023-01-30T00:20:55;19.77;;;18.07;;
7571;SDS011;3827;49.928;8.548;2023-01-30T00:23:23;19.83;;;18.13;;
7571;SDS011;3827;49.928;8.548;2023-01-30T00:25:51;18.70;;;17.00;;
7571;SDS011;3827;49.928;8.548;2023-01-30T00:28:18;20.23;;;18.42;;
7571;SDS011;3827;49.928;8.548;2023-01-30T00:30:47;18.98;;;17.27;;
7571;SDS011;3827;49.928;8.548;2023-01-30T00:33:14;18.92;;;17.23;;
7571;SDS011;3827;49.928;8.548;2023-01-30T00:35:42;18.63;;;16.92;;
7571;SDS011;3827;49.928;8.548;2023-01-30T00:38:10;19.80;;;17.92;;
7571;SDS011;3827;49.928;8.548;2023-01-30T00:40:37;18.55;;;16.88;;
7571;SDS011;3827;49.928;8.548;2023-01-30T00:43:04;19.05;;;17.35;;
7571;SDS011;3827;49.928;8.548;2023-01-30T00:45:49;18.77;;;17.08;;
7571;SDS011;3827;49.928;8.548;2023-01-30T00:48:50;17.92;;;16.33;;
7571;SDS011;3827;49.928;8.548;2023-01-30T00:51:17;18.13;;;16.50;;
7571;SDS011;3827;49.928;8.548;2023-01-30T00:53:46;18.48;;;16.80;;
7571;SDS011;3827;49.928;8.548;2023-01-30T00:56:12;18.23;;;16.63;;
7571;SDS011;3827;49.928;8.548;2023-01-30T00:58:39;18.73;;;17.02;;
7571;SDS011;3827;49.928;8.548;2023-01-30T01:01:06;19.55;;;17.77;;
7571;SDS011;3827;49.928;8.548;2023-01-30T01:03:33;19.80;;;18.00;;
7571;SDS011;3827;49.928;8.548;2023-01-30T01:05:59;19.42;;;17.63;;
7571;SDS011;3827;49.928;8.548;2023-01-30T01:08:26;17.98;;;16.38;;
7571;SDS011;3827;49.928;8.548;2023-01-30T01:10:54;18.95;;;17.25;;
7571;SDS011;3827;49.928;8.548;2023-01-30T01:13:21;19.13;;;17.40;;
7571;SDS011;3827;49.928;8.548;2023-01-30T01:15:48;18.38;;;16.67;;
7571;SDS011;3827;49.928;8.548;2023-01-30T01:18:15;18.55;;;16.85;;
7571;SDS011;3827;49.928;8.548;2023-01-30T01:20:42;18.42;;;16.77;;
7571;SDS011;3827;49.928;8.548;2023-01-30T01:23:09;18.45;;;16.77;;
7571;SDS011;3827;49.928;8.548;2023-01-30T01:25:36;19.80;;;17.73;;
7571;SDS011;3827;49.928;8.548;2023-01-30T01:28:04;18.30;;;16.60;;
7571;SDS011;3827;49.928;8.548;2023-01-30T01:30:31;18.98;;;17.20;;
7571;SDS011;3827;49.928;8.548;2023-01-30T01:32:58;19.40;;;17.52;;
7571;SDS011;3827;49.928;8.548;2023-01-30T01:35:25;18.15;;;16.55;;
7571;SDS011;3827;49.928;8.548;2023-01-30T01:37:52;17.50;;;15.90;;
7571;SDS011;3827;49.928;8.548;2023-01-30T01:40:19;18.90;;;17.20;;
7571;SDS011;3827;49.928;8.548;2023-01-30T01:43:11;19.27;;;17.48;;
7571;SDS011;3827;49.928;8.548;2023-01-30T01:45:42;18.85;;;17.15;;
7571;SDS011;3827;49.928;8.548;2023-01-30T01:48:11;18.40;;;16.77;;
7571;SDS011;3827;49.928;8.548;2023-01-30T01:50:45;18.43;;;16.73;;
7571;SDS011;3827;49.928;8.548;2023-01-30T01:53:16;19.05;;;17.30;;
7571;SDS011;3827;49.928;8.548;2023-01-30T01:55:46;19.02;;;17.30;;
7571;SDS011;3827;49.928;8.548;2023-01-30T01:58:18;19.15;;;17.35;;
7571;SDS011;3827;49.928;8.548;2023-01-30T02:00:50;19.20;;;17.50;;
7571;SDS011;3827;49.928;8.548;2023-01-30T02:03:18;19.25;;;17.52;;
7571;SDS011;3827;49.928;8.548;2023-01-30T02:05:50;20.42;;;18.52;;
7571;SDS011;3827;49.928;8.548;2023-01-30T02:08:21;21.08;;;19.15;;
7571;SDS011;3827;49.928;8.548;2023-01-30T02:10:52;19.90;;;18.10;;
7571;SDS011;3827;49.928;8.548;2023-01-30T02:13:25;20.60;;;18.75;;
7571;SDS011;3827;49.928;8.548;2023-01-30T02:15:54;21.38;;;19.38;;
7571;SDS011;3827;49.928;8.548;2023-01-30T02:18:22;20.33;;;18.48;;
7571;SDS011;3827;49.928;8.548;2023-01-30T02:20:56;21.02;;;19.02;;
7571;SDS011;3827;49.928;8.548;2023-01-30T02:23:39;20.33;;;18.48;;
7571;SDS011;3827;49.928;8.548;2023-01-30T02:26:32;20.15;;;18.25;;
7571;SDS011;3827;49.928;8.548;2023-01-30T02:29:45;19.40;;;17.52;;
7571;SDS011;3827;49.928;8.548;2023-01-30T02:32:48;19.58;;;17.77;;
7571;SDS011;3827;49.928;8.548;2023-01-30T02:35:27;19.15;;;17.35;;
7571;SDS011;3827;49.928;8.548;2023-01-30T02:38:03;19.08;;;17.38;;
7571;SDS011;3827;49.928;8.548;2023-01-30T02:40:39;19.42;;;17.42;;
7571;SDS011;3827;49.928;8.548;2023-01-30T02:43:12;18.63;;;16.93;;
7571;SDS011;3827;49.928;8.548;2023-01-30T02:45:49;19.10;;;17.35;;
7571;SDS011;3827;49.928;8.548;2023-01-30T02:48:22;18.95;;;17.23;;
7571;SDS011;3827;49.928;8.548;2023-01-30T02:50:54;18.77;;;17.07;;
7571;SDS011;3827;49.928;8.548;2023-01-30T02:53:24;18.50;;;16.80;;
7571;SDS011;3827;49.928;8.548;2023-01-30T02:55:54;17.43;;;15.83;;
7571;SDS011;3827;49.928;8.548;2023-01-30T02:58:21;18.33;;;16.63;;
7571;SDS011;3827;49.928;8.548;2023-01-30T03:00:59;17.85;;;16.15;;
7571;SDS011;3827;49.928;8.548;2023-01-30T03:03:49;17.33;;;15.73;;
7571;SDS011;3827;49.928;8.548;2023-01-30T03:06:41;17.87;;;16.27;;
7571;SDS011;3827;49.928;8.548;2023-01-30T03:09:19;18.50;;;16.80;;
7571;SDS011;3827;49.928;8.548;2023-01-30T03:11:53;18.27;;;16.67;;
7571;SDS011;3827;49.928;8.548;2023-01-30T03:14:27;18.42;;;16.73;;
7571;SDS011;3827;49.928;8.548;2023-01-30T03:16:59;18.63;;;16.88;;
7571;SDS011;3827;49.928;8.548;2023-01-30T03:19:31;18.10;;;16.45;;
7571;SDS011;3827;49.928;8.548;2023-01-30T03:21:58;19.10;;;17.30;;
7571;SDS011;3827;49.928;8.548;2023-01-30T03:24:25;19.00;;;17.30;;
7571;SDS011;3827;49.928;8.548;2023-01-30T03:26:53;19.00;;;17.30;;
7571;SDS011;3827;49.928;8.548;2023-01-30T03:29:23;19.55;;;17.75;;
7571;SDS011;3827;49.928;8.548;2023-01-30T03:31:50;18.35;;;16.75;;
7571;SDS011;3827;49.928;8.548;2023-01-30T03:34:17;19.08;;;17.27;;
7571;SDS011;3827;49.928;8.548;2023-01-30T03:36:45;19.17;;;17.48;;
7571;SDS011;3827;49.928;8.548;2023-01-30T03:39:12;19.75;;;17.85;;
7571;SDS011;3827;49.928;8.548;2023-01-30T03:41:39;19.38;;;17.63;;
7571;SDS011;3827;49.928;8.548;2023-01-30T03:44:06;20.08;;;18.20;;
7571;SDS011;3827;49.928;8.548;2023-01-30T03:46:33;20.20;;;18.30;;
7571;SDS011;3827;49.928;8.548;2023-01-30T03:49:00;21.05;;;19.05;;
7571;SDS011;3827;49.928;8.548;2023-01-30T03:51:27;20.63;;;18.70;;
7571;SDS011;3827;49.928;8.548;2023-01-30T03:53:58;21.00;;;19.10;;
7571;SDS011;3827;49.928;8.548;2023-01-30T03:56:25;21.60;;;19.60;;
7571;SDS011;3827;49.928;8.548;2023-01-30T03:58:51;21.77;;;19.75;;
7571;SDS011;3827;49.928;8.548;2023-01-30T04:01:18;21.38;;;19.48;;
7571;SDS011;3827;49.928;8.548;2023-01-30T04:03:45;20.83;;;18.92;;
7571;SDS011;3827;49.928;8.548;2023-01-30T04:06:12;21.13;;;19.20;;
7571;SDS011;3827;49.928;8.548;2023-01-30T04:08:39;20.30;;;18.50;;
7571;SDS011;3827;49.928;8.548;2023-01-30T04:11:07;21.02;;;19.13;;
7571;SDS011;3827;49.928;8.548;2023-01-30T04:13:34;22.25;;;20.25;;
7571;SDS011;3827;49.928;8.548;2023-01-30T04:16:12;22.65;;;20.60;;
7571;SDS011;3827;49.928;8.548;2023-01-30T04:18:40;22.42;;;20.33;;
7571;SDS011;3827;49.928;8.548;2023-01-30T04:21:06;23.23;;;21.00;;
7571;SDS011;3827;49.928;8.548;2023-01-30T04:23:33;23.27;;;21.10;;
7571;SDS011;3827;49.928;8.548;2023-01-30T04:26:00;23.83;;;21.63;;
7571;SDS011;3827;49.928;8.548;2023-01-30T04:28:28;24.05;;;21.85;;
7571;SDS011;3827;49.928;8.548;2023-01-30T04:30:55;23.83;;;21.63;;
7571;SDS011;3827;49.928;8.548;2023-01-30T04:33:22;23.63;;;21.33;;
7571;SDS011;3827;49.928;8.548;2023-01-30T04:35:51;24.88;;;22.48;;
7571;SDS011;3827;49.928;8.548;2023-01-30T04:38:19;24.63;;;22.33;;
7571;SDS011;3827;49.928;8.548;2023-01-30T04:40:47;23.45;;;21.35;;
7571;SDS011;3827;49.928;8.548;2023-01-30T04:43:14;22.83;;;20.65;;
7571;SDS011;3827;49.928;8.548;2023-01-30T04:45:42;22.50;;;20.38;;
7571;SDS011;3827;49.928;8.548;2023-01-30T04:48:10;23.30;;;21.17;;
7571;SDS011;3827;49.928;8.548;2023-01-30T04:50:37;23.10;;;20.90;;
7571;SDS011;3827;49.928;8.548;2023-01-30T04:53:04;22.60;;;20.40;;
7571;SDS011;3827;49.928;8.548;2023-01-30T04:55:31;23.35;;;21.25;;
7571;SDS011;3827;49.928;8.548;2023-01-30T04:57:58;22.80;;;20.70;;
7571;SDS011;3827;49.928;8.548;2023-01-30T05:00:25;22.83;;;20.73;;
7571;SDS011;3827;49.928;8.548;2023-01-30T05:02:54;22.02;;;20.02;;
7571;SDS011;3827;49.928;8.548;2023-01-30T05:05:21;22.50;;;20.48;;
7571;SDS011;3827;49.928;8.548;2023-01-30T05:07:48;22.48;;;20.38;;
7571;SDS011;3827;49.928;8.548;2023-01-30T05:10:15;22.80;;;20.63;;
7571;SDS011;3827;49.928;8.548;2023-01-30T05:12:42;22.13;;;20.13;;
7571;SDS011;3827;49.928;8.548;2023-01-30T05:15:10;21.63;;;19.70;;
7571;SDS011;3827;49.928;8.548;2023-01-30T05:17:37;22.00;;;19.98;;
7571;SDS011;3827;49.928;8.548;2023-01-30T05:20:08;21.58;;;19.58;;
7571;SDS011;3827;49.928;8.548;2023-01-30T05:22:36;21.48;;;19.58;;
7571;SDS011;3827;49.928;8.548;2023-01-30T05:25:03;21.70;;;19.70;;
7571;SDS011;3827;49.928;8.548;2023-01-30T05:27:30;22.45;;;20.45;;
7571;SDS011;3827;49.928;8.548;2023-01-30T05:29:57;22.08;;;19.98;;
7571;SDS011;3827;49.928;8.548;2023-01-30T05:32:24;21.60;;;19.70;;
7571;SDS011;3827;49.928;8.548;2023-01-30T05:34:51;21.30;;;19.37;;
7571;SDS011;3827;49.928;8.548;2023-01-30T05:37:19;21.35;;;19.35;;
7571;SDS011;3827;49.928;8.548;2023-01-30T05:39:46;21.38;;;19.38;;
7571;SDS011;3827;49.928;8.548;2023-01-30T05:42:13;21.95;;;19.95;;
7571;SDS011;3827;49.928;8.548;2023-01-30T05:44:40;21.50;;;19.55;;
7571;SDS011;3827;49.928;8.548;2023-01-30T05:47:07;22.33;;;20.23;;
7571;SDS011;3827;49.928;8.548;2023-01-30T05:49:34;21.83;;;19.83;;
7571;SDS011;3827;49.928;8.548;2023-01-30T05:52:01;20.85;;;18.95;;
7571;SDS011;3827;49.928;8.548;2023-01-30T05:54:29;20.90;;;18.98;;
7571;SDS011;3827;49.928;8.548;2023-01-30T05:56:55;20.65;;;18.75;;
7571;SDS011;3827;49.928;8.548;2023-01-30T05:59:22;21.03;;;19.03;;
7571;SDS011;3827;49.928;8.548;2023-01-30T06:01:49;21.38;;;19.42;;
7571;SDS011;3827;49.928;8.548;2023-01-30T06:04:16;21.02;;;19.13;;
7571;SDS011;3827;49.928;8.548;2023-01-30T06:06:42;20.65;;;18.75;;
7571;SDS011;3827;49.928;8.548;2023-01-30T06:09:09;20.40;;;18.60;;
7571;SDS011;3827;49.928;8.548;2023-01-30T06:11:38;20.58;;;18.70;;
7571;SDS011;3827;49.928;8.548;2023-01-30T06:14:05;18.38;;;16.77;;
7571;SDS011;3827;49.928;8.548;2023-01-30T06:16:32;17.95;;;16.35;;
7571;SDS011;3827;49.928;8.548;2023-01-30T06:18:58;22.55;;;17.05;;
7571;SDS011;3827;49.928;8.548;2023-01-30T06:21:25;23.30;;;20.90;;
7571;SDS011;3827;49.928;8.548;2023-01-30T06:23:52;18.83;;;17.13;;
7571;SDS011;3827;49.928;8.548;2023-01-30T06:26:19;17.77;;;16.17;;
7571;SDS011;3827;49.928;8.548;2023-01-30T06:28:47;17.75;;;16.20;;
7571;SDS011;3827;49.928;8.548;2023-01-30T06:31:14;17.08;;;15.57;;
7571;SDS011;3827;49.928;8.548;2023-01-30T06:33:42;17.10;;;15.60;;
7571;SDS011;3827;49.928;8.548;2023-01-30T06:36:09;16.67;;;15.27;;
7571;SDS011;3827;49.928;8.548;2023-01-30T06:38:36;15.15;;;13.85;;
7571;SDS011;3827;49.928;8.548;2023-01-30T06:41:03;15.97;;;14.53;;
7571;SDS011;3827;49.928;8.548;2023-01-30T06:43:30;16.60;;;15.10;;
7571;SDS011;3827;49.928;8.548;2023-01-30T06:45:58;16.55;;;15.15;;
7571;SDS011;3827;49.928;8.548;2023-01-30T06:48:25;15.48;;;14.10;;
7571;SDS011;3827;49.928;8.548;2023-01-30T06:50:52;15.65;;;14.32;;
7571;SDS011;3827;49.928;8.548;2023-01-30T06:53:19;15.55;;;14.23;;
7571;SDS011;3827;49.928;8.548;2023-01-30T06:55:46;15.90;;;14.57;;
7571;SDS011;3827;49.928;8.548;2023-01-30T06:58:13;17.35;;;15.60;;
7571;SDS011;3827;49.928;8.548;2023-01-30T07:00:40;16.30;;;14.80;;
7571;SDS011;3827;49.928;8.548;2023-01-30T07:03:10;15.20;;;13.82;;
7571;SDS011;3827;49.928;8.548;2023-01-30T07:05:38;17.30;;;15.80;;
7571;SDS011;3827;49.928;8.548;2023-01-30T07:08:05;15.68;;;14.27;;
7571;SDS011;3827;49.928;8.548;2023-01-30T07:10:31;16.75;;;15.25;;
7571;SDS011;3827;49.928;8.548;2023-01-30T07:12:59;15.75;;;14.35;;
7571;SDS011;3827;49.928;8.548;2023-01-30T07:15:26;15.40;;;14.00;;
7571;SDS011;3827;49.928;8.548;2023-01-30T07:17:53;15.02;;;13.60;;
7571;SDS011;3827;49.928;8.548;2023-01-30T07:20:21;15.27;;;13.98;;
7571;SDS011;3827;49.928;8.548;2023-01-30T07:22:49;15.80;;;14.40;;
7571;SDS011;3827;49.928;8.548;2023-01-30T07:25:16;14.50;;;13.30;;
7571;SDS011;3827;49.928;8.548;2023-01-30T07:27:48;16.25;;;14.82;;
7571;SDS011;3827;49.928;8.548;2023-01-30T07:30:15;15.90;;;14.50;;
7571;SDS011;3827;49.928;8.548;2023-01-30T07:32:42;16.00;;;14.60;;
7571;SDS011;3827;49.928;8.548;2023-01-30T07:35:09;16.23;;;14.73;;
7571;SDS011;3827;49.928;8.548;2023-01-30T07:37:37;15.82;;;14.43;;
7571;SDS011;3827;49.928;8.548;2023-01-30T07:40:05;15.75;;;14.35;;
7571;SDS011;3827;49.928;8.548;2023-01-30T07:42:34;16.45;;;15.00;;
7571;SDS011;3827;49.928;8.548;2023-01-30T07:45:01;16.00;;;14.57;;
7571;SDS011;3827;49.928;8.548;2023-01-30T07:47:27;16.88;;;15.32;;
7571;SDS011;3827;49.928;8.548;2023-01-30T07:49:55;15.27;;;13.98;;
7571;SDS011;3827;49.928;8.548;2023-01-30T07:52:21;15.85;;;14.45;;
7571;SDS011;3827;49.928;8.548;2023-01-30T07:54:50;15.25;;;13.85;;
7571;SDS011;3827;49.928;8.548;2023-01-30T07:57:17;15.80;;;14.30;;
7571;SDS011;3827;49.928;8.548;2023-01-30T07:59:44;20.33;;;18.42;;
7571;SDS011;3827;49.928;8.548;2023-01-30T08:02:10;16.08;;;14.75;;
7571;SDS011;3827;49.928;8.548;2023-01-30T08:04:37;17.67;;;16.07;;
7571;SDS011;3827;49.928;8.548;2023-01-30T08:07:04;16.13;;;14.73;;
7571;SDS011;3827;49.928;8.548;2023-01-30T08:09:31;17.85;;;16.35;;
7571;SDS011;3827;49.928;8.548;2023-01-30T08:12:01;19.17;;;17.52;;
7571;SDS011;3827;49.928;8.548;2023-01-30T08:14:27;16.27;;;14.88;;
7571;SDS011;3827;49.928;8.548;2023-01-30T08:16:55;16.17;;;14.68;;
7571;SDS011;3827;49.928;8.548;2023-01-30T08:19:21;16.05;;;14.65;;
7571;SDS011;3827;49.928;8.548;2023-01-30T08:21:48;15.88;;;14.48;;
7571;SDS011;3827;49.928;8.548;2023-01-30T08:24:18;15.43;;;14.02;;
7571;SDS011;3827;49.928;8.548;2023-01-30T08:26:46;15.65;;;14.25;;
7571;SDS011;3827;49.928;8.548;2023-01-30T08:29:14;14.52;;;13.32;;
7571;SDS011;3827;49.928;8.548;2023-01-30T08:31:41;14.98;;;13.68;;
7571;SDS011;3827;49.928;8.548;2023-01-30T08:34:08;15.25;;;13.95;;
7571;SDS011;3827;49.928;8.548;2023-01-30T08:36:35;15.40;;;14.00;;
7571;SDS011;3827;49.928;8.548;2023-01-30T08:39:02;15.05;;;13.75;;
7571;SDS011;3827;49.928;8.548;2023-01-30T08:41:29;13.82;;;12.63;;
7571;SDS011;3827;49.928;8.548;2023-01-30T08:43:55;14.30;;;13.00;;
7571;SDS011;3827;49.928;8.548;2023-01-30T08:46:24;16.92;;;15.52;;
7571;SDS011;3827;49.928;8.548;2023-01-30T08:48:50;17.33;;;15.83;;
7571;SDS011;3827;49.928;8.548;2023-01-30T08:51:17;24.52;;;22.45;;
7571;SDS011;3827;49.928;8.548;2023-01-30T08:53:44;14.90;;;13.60;;
7571;SDS011;3827;49.928;8.548;2023-01-30T08:56:11;14.35;;;13.15;;
7571;SDS011;3827;49.928;8.548;2023-01-30T08:58:39;12.70;;;11.60;;
7571;SDS011;3827;49.928;8.548;2023-01-30T09:01:07;12.70;;;11.60;;
7571;SDS011;3827;49.928;8.548;2023-01-30T09:03:36;13.02;;;11.93;;
7571;SDS011;3827;49.928;8.548;2023-01-30T09:06:03;12.43;;;11.40;;
7571;SDS011;3827;49.928;8.548;2023-01-30T09:08:30;12.30;;;11.20;;
7571;SDS011;3827;49.928;8.548;2023-01-30T09:10:57;11.45;;;10.45;;
7571;SDS011;3827;49.928;8.548;2023-01-30T09:13:24;11.55;;;10.55;;
7571;SDS011;3827;49.928;8.548;2023-01-30T09:15:52;11.80;;;10.80;;
7571;SDS011;3827;49.928;8.548;2023-01-30T09:18:18;12.00;;;11.00;;
7571;SDS011;3827;49.928;8.548;2023-01-30T09:20:47;11.70;;;10.70;;
7571;SDS011;3827;49.928;8.548;2023-01-30T09:23:16;12.90;;;11.70;;
7571;SDS011;3827;49.928;8.548;2023-01-30T09:25:45;12.60;;;11.50;;
7571;SDS011;3827;49.928;8.548;2023-01-30T09:28:12;12.98;;;11.80;;
7571;SDS011;3827;49.928;8.548;2023-01-30T09:30:38;11.88;;;10.77;;
7571;SDS011;3827;49.928;8.548;2023-01-30T09:33:05;12.90;;;11.80;;
7571;SDS011;3827;49.928;8.548;2023-01-30T09:35:32;12.20;;;11.20;;
7571;SDS011;3827;49.928;8.548;2023-01-30T09:38:03;11.35;;;10.45;;
7571;SDS011;3827;49.928;8.548;2023-01-30T09:40:30;11.90;;;10.90;;
7571;SDS011;3827;49.928;8.548;2023-01-30T09:43:05;11.48;;;10.48;;
7571;SDS011;3827;49.928;8.548;2023-01-30T09:45:43;11.65;;;10.55;;
7571;SDS011;3827;49.928;8.548;2023-01-30T09:48:19;10.75;;;9.75;;
7571;SDS011;3827;49.928;8.548;2023-01-30T09:50:57;10.98;;;9.98;;
7571;SDS011;3827;49.928;8.548;2023-01-30T09:53:40;10.37;;;9.47;;
7571;SDS011;3827;49.928;8.548;2023-01-30T09:56:21;10.00;;;9.20;;
7571;SDS011;3827;49.928;8.548;2023-01-30T09:58:49;9.82;;;8.93;;
7571;SDS011;3827;49.928;8.548;2023-01-30T10:01:22;10.00;;;9.20;;
7571;SDS011;3827;49.928;8.548;2023-01-30T10:03:57;9.70;;;8.90;;
7571;SDS011;3827;49.928;8.548;2023-01-30T10:06:31;10.13;;;9.32;;
7571;SDS011;3827;49.928;8.548;2023-01-30T10:09:06;9.30;;;8.55;;
7571;SDS011;3827;49.928;8.548;2023-01-30T10:11:40;8.43;;;7.72;;
7571;SDS011;3827;49.928;8.548;2023-01-30T10:14:22;6.63;;;6.13;;
7571;SDS011;3827;49.928;8.548;2023-01-30T10:17:03;4.70;;;4.37;;
7571;SDS011;3827;49.928;8.548;2023-01-30T10:19:49;2.85;;;2.65;;
7571;SDS011;3827;49.928;8.548;2023-01-30T10:22:29;2.40;;;2.23;;
7571;SDS011;3827;49.928;8.548;2023-01-30T10:25:14;2.38;;;2.28;;
7571;SDS011;3827;49.928;8.548;2023-01-30T10:27:50;2.25;;;2.15;;
7571;SDS011;3827;49.928;8.548;2023-01-30T10:30:22;1.92;;;1.80;;
7571;SDS011;3827;49.928;8.548;2023-01-30T10:32:50;2.17;;;2.08;;
7571;SDS011;3827;49.928;8.548;2023-01-30T10:35:22;2.03;;;1.92;;
7571;SDS011;3827;49.928;8.548;2023-01-30T10:37:55;1.73;;;1.63;;
7571;SDS011;3827;49.928;8.548;2023-01-30T10:40:31;1.60;;;1.50;;
7571;SDS011;3827;49.928;8.548;2023-01-30T10:43:05;1.65;;;1.55;;
7571;SDS011;3827;49.928;8.548;2023-01-30T10:45:40;1.50;;;1.40;;
7571;SDS011;3827;49.928;8.548;2023-01-30T10:48:26;1.48;;;1.40;;
7571;SDS011;3827;49.928;8.548;2023-01-30T10:51:14;1.40;;;1.30;;
7571;SDS011;3827;49.928;8.548;2023-01-30T10:53:49;1.50;;;1.40;;
7571;SDS011;3827;49.928;8.548;2023-01-30T10:56:24;1.38;;;1.38;;
7571;SDS011;3827;49.928;8.548;2023-01-30T10:58:59;1.20;;;1.10;;
7571;SDS011;3827;49.928;8.548;2023-01-30T11:01:34;1.02;;;1.02;;
7571;SDS011;3827;49.928;8.548;2023-01-30T11:04:12;1.33;;;1.25;;
7571;SDS011;3827;49.928;8.548;2023-01-30T11:06:44;1.10;;;1.10;;
7571;SDS011;3827;49.928;8.548;2023-01-30T11:09:12;1.20;;;1.20;;
7571;SDS011;3827;49.928;8.548;2023-01-30T11:11:45;1.23;;;1.23;;
7571;SDS011;3827;49.928;8.548;2023-01-30T11:14:14;1.48;;;1.33;;
7571;SDS011;3827;49.928;8.548;2023-01-30T11:16:42;1.55;;;1.45;;
7571;SDS011;3827;49.928;8.548;2023-01-30T11:19:10;1.40;;;1.30;;
7571;SDS011;3827;49.928;8.548;2023-01-30T11:21:38;1.60;;;1.42;;
7571;SDS011;3827;49.928;8.548;2023-01-30T11:24:11;1.20;;;1.20;;
7571;SDS011;3827;49.928;8.548;2023-01-30T11:26:42;1.30;;;1.30;;
7571;SDS011;3827;49.928;8.548;2023-01-30T11:29:23;1.23;;;1.23;;
7571;SDS011;3827;49.928;8.548;2023-01-30T11:31:52;1.23;;;1.23;;
7571;SDS011;3827;49.928;8.548;2023-01-30T11:34:20;1.50;;;1.40;;
7571;SDS011;3827;49.928;8.548;2023-01-30T11:36:48;1.50;;;1.40;;
7571;SDS011;3827;49.928;8.548;2023-01-30T11:39:17;1.20;;;1.20;;
7571;SDS011;3827;49.928;8.548;2023-01-30T11:41:56;1.58;;;1.48;;
7571;SDS011;3827;49.928;8.548;2023-01-30T11:44:29;1.60;;;1.50;;
7571;SDS011;3827;49.928;8.548;2023-01-30T11:46:58;1.60;;;1.50;;
7571;SDS011;3827;49.928;8.548;2023-01-30T11:49:27;1.60;;;1.50;;
7571;SDS011;3827;49.928;8.548;2023-01-30T11:51:58;1.67;;;1.58;;
7571;SDS011;3827;49.928;8.548;2023-01-30T11:54:27;1.98;;;1.88;;
7571;SDS011;3827;49.928;8.548;2023-01-30T11:56:59;1.67;;;1.58;;
7571;SDS011;3827;49.928;8.548;2023-01-30T11:59:29;1.70;;;1.60;;
7571;SDS011;3827;49.928;8.548;2023-01-30T12:02:02;1.67;;;1.57;;
7571;SDS011;3827;49.928;8.548;2023-01-30T12:04:30;2.03;;;1.65;;
7571;SDS011;3827;49.928;8.548;2023-01-30T12:07:05;1.50;;;1.45;;
7571;SDS011;3827;49.928;8.548;2023-01-30T12:09:34;1.60;;;1.50;;
7571;SDS011;3827;49.928;8.548;2023-01-30T12:12:08;1.70;;;1.60;;
7571;SDS011;3827;49.928;8.548;2023-01-30T12:14:59;1.60;;;1.50;;
7571;SDS011;3827;49.928;8.548;2023-01-30T12:17:34;1.42;;;1.33;;
7571;SDS011;3827;49.928;8.548;2023-01-30T12:20:11;1.65;;;1.55;;
7571;SDS011;3827;49.928;8.548;2023-01-30T12:22:41;1.67;;;1.58;;
7571;SDS011;3827;49.928;8.548;2023-01-30T12:25:15;1.20;;;1.20;;
7571;SDS011;3827;49.928;8.548;2023-01-30T12:27:54;1.40;;;1.30;;
7571;SDS011;3827;49.928;8.548;2023-01-30T12:30:29;1.20;;;1.10;;
7571;SDS011;3827;49.928;8.548;2023-01-30T12:33:02;1.23;;;1.13;;
7571;SDS011;3827;49.928;8.548;2023-01-30T12:35:34;1.40;;;1.20;;
7571;SDS011;3827;49.928;8.548;2023-01-30T12:38:15;1.10;;;1.10;;
7571;SDS011;3827;49.928;8.548;2023-01-30T12:40:55;1.25;;;1.17;;
7571;SDS011;3827;49.928;8.548;2023-01-30T12:43:42;1.23;;;1.20;;
7571;SDS011;3827;49.928;8.548;2023-01-30T12:46:25;2.10;;;1.40;;
7571;SDS011;3827;49.928;8.548;2023-01-30T12:49:19;1.17;;;1.08;;
7571;SDS011;3827;49.928;8.548;2023-01-30T12:52:17;1.23;;;1.13;;
7571;SDS011;3827;49.928;8.548;2023-01-30T12:55:13;1.30;;;1.20;;
7571;SDS011;3827;49.928;8.548;2023-01-30T12:57:47;1.15;;;1.10;;
7571;SDS011;3827;49.928;8.548;2023-01-30T13:00:26;1.10;;;1.10;;
7571;SDS011;3827;49.928;8.548;2023-01-30T13:03:13;1.30;;;1.30;;
7571;SDS011;3827;49.928;8.548;2023-01-30T13:05:50;1.30;;;1.20;;
7571;SDS011;3827;49.928;8.548;2023-01-30T13:08:28;1.27;;;1.17;;
7571;SDS011;3827;49.928;8.548;2023-01-30T13:11:20;1.40;;;1.20;;
7571;SDS011;3827;49.928;8.548;2023-01-30T13:14:02;1.70;;;0.88;;
7571;SDS011;3827;49.928;8.548;2023-01-30T13:16:44;2.15;;;1.95;;
7571;SDS011;3827;49.928;8.548;2023-01-30T13:19:22;1.55;;;1.30;;
7571;SDS011;3827;49.928;8.548;2023-01-30T13:21:55;1.33;;;1.23;;
7571;SDS011;3827;49.928;8.548;2023-01-30T13:24:31;1.73;;;1.60;;
7571;SDS011;3827;49.928;8.548;2023-01-30T13:27:13;1.38;;;1.30;;
7571;SDS011;3827;49.928;8.548;2023-01-30T13:29:42;1.80;;;1.70;;
7571;SDS011;3827;49.928;8.548;2023-01-30T13:32:13;2.28;;;2.08;;
7571;SDS011;3827;49.928;8.548;2023-01-30T13:34:43;2.97;;;2.60;;
7571;SDS011;3827;49.928;8.548;2023-01-30T13:37:14;1.70;;;1.60;;
7571;SDS011;3827;49.928;8.548;2023-01-30T13:39:42;2.03;;;1.85;;
7571;SDS011;3827;49.928;8.548;2023-01-30T13:42:15;3.20;;;2.83;;
7571;SDS011;3827;49.928;8.548;2023-01-30T13:44:49;2.35;;;2.00;;
7571;SDS011;3827;49.928;8.548;2023-01-30T13:47:22;2.28;;;2.08;;
7571;SDS011;3827;49.928;8.548;2023-01-30T13:50:05;1.67;;;1.58;;
7571;SDS011;3827;49.928;8.548;2023-01-30T13:52:44;2.20;;;1.57;;
7571;SDS011;3827;49.928;8.548;2023-01-30T13:55:20;1.95;;;1.70;;
7571;SDS011;3827;49.928;8.548;2023-01-30T13:57:54;1.85;;;1.75;;
7571;SDS011;3827;49.928;8.548;2023-01-30T14:00:27;1.75;;;1.65;;
7571;SDS011;3827;49.928;8.548;2023-01-30T14:03:22;1.70;;;1.60;;
7571;SDS011;3827;49.928;8.548;2023-01-30T14:09:02;1.60;;;1.50;;
7571;SDS011;3827;49.928;8.548;2023-01-30T14:11:45;2.23;;;1.83;;
7571;SDS011;3827;49.928;8.548;2023-01-30T14:14:28;2.40;;;1.87;;
7571;SDS011;3827;49.928;8.548;2023-01-30T14:16:57;2.05;;;1.85;;
7571;SDS011;3827;49.928;8.548;2023-01-30T14:19:36;2.47;;;1.70;;
7571;SDS011;3827;49.928;8.548;2023-01-30T14:22:17;1.90;;;1.80;;
7571;SDS011;3827;49.928;8.548;2023-01-30T14:37:25;2.78;;;1.98;;
7571;SDS011;3827;49.928;8.548;2023-01-30T14:39:54;2.87;;;2.33;;
7571;SDS011;3827;49.928;8.548;2023-01-30T14:42:22;2.95;;;2.70;;
7571;SDS011;3827;49.928;8.548;2023-01-30T14:44:57;2.50;;;2.30;;
7571;SDS011;3827;49.928;8.548;2023-01-30T14:47:29;3.38;;;2.50;;
7571;SDS011;3827;49.928;8.548;2023-01-30T14:49:58;4.22;;;2.70;;
7571;SDS011;3827;49.928;8.548;2023-01-30T14:52:37;4.63;;;3.03;;
7571;SDS011;3827;49.928;8.548;2023-01-30T14:55:06;4.18;;;3.00;;
7571;SDS011;3827;49.928;8.548;2023-01-30T14:57:47;6.05;;;2.80;;
7571;SDS011;3827;49.928;8.548;2023-01-30T15:00:22;4.53;;;3.00;;
7571;SDS011;3827;49.928;8.548;2023-01-30T15:02:53;4.53;;;2.40;;
7571;SDS011;3827;49.928;8.548;2023-01-30T15:05:29;4.82;;;2.42;;
7571;SDS011;3827;49.928;8.548;2023-01-30T15:08:01;6.30;;;2.28;;
7571;SDS011;3827;49.928;8.548;2023-01-30T15:10:40;5.38;;;2.30;;
7571;SDS011;3827;49.928;8.548;2023-01-30T15:13:27;4.83;;;2.27;;
7571;SDS011;3827;49.928;8.548;2023-01-30T15:16:09;5.40;;;2.40;;
7571;SDS011;3827;49.928;8.548;2023-01-30T15:19:00;4.95;;;2.20;;
7571;SDS011;3827;49.928;8.548;2023-01-30T15:21:48;5.30;;;2.17;;
7571;SDS011;3827;49.928;8.548;2023-01-30T15:24:27;6.63;;;2.30;;
7571;SDS011;3827;49.928;8.548;2023-01-30T15:27:26;5.28;;;2.00;;
7571;SDS011;3827;49.928;8.548;2023-01-30T15:30:00;5.70;;;2.20;;
7571;SDS011;3827;49.928;8.548;2023-01-30T15:32:38;4.63;;;2.23;;
7571;SDS011;3827;49.928;8.548;2023-01-30T15:35:15;7.10;;;2.50;;
7571;SDS011;3827;49.928;8.548;2023-01-30T15:37:49;5.28;;;2.55;;
7571;SDS011;3827;49.928;8.548;2023-01-30T15:40:18;5.68;;;2.20;;